sensor_id;sensor_type;location;lat;lon;timestamp;pressure;altitude;pressure_sealevel;temperature;humidity
34374;BME280;20637;55.770;37.592;2023-12-29T00:01:46;98916.38;;;-1.25;68.84
34374;BME280;20637;55.770;37.592;2023-12-29T00:04:11;98915.41;;;-1.24;68.92
34374;BME280;20637;55.770;37.592;2023-12-29T00:06:38;98908.59;;;-1.16;68.57
34374;BME280;20637;55.770;37.592;2023-12-29T00:09:04;98902.97;;;-1.11;68.47
34374;BME280;20637;55.770;37.592;2023-12-29T00:11:30;98902.63;;;-1.07;69.13
34374;BME280;20637;55.770;37.592;2023-12-29T00:13:56;98898.41;;;-1.09;68.41
34374;BME280;20637;55.770;37.592;2023-12-29T00:16:21;98896.94;;;-1.13;68.88
34374;BME280;20637;55.770;37.592;2023-12-29T00:18:47;98887.31;;;-1.14;68.75
34374;BME280;20637;55.770;37.592;2023-12-29T00:21:13;98879.25;;;-1.13;68.68
34374;BME280;20637;55.770;37.592;2023-12-29T00:23:39;98877.44;;;-1.12;68.27
34374;BME280;20637;55.770;37.592;2023-12-29T00:26:05;98876.72;;;-1.14;68.15
34374;BME280;20637;55.770;37.592;2023-12-29T00:28:31;98866.69;;;-1.22;68.02
34374;BME280;20637;55.770;37.592;2023-12-29T00:30:56;98854.28;;;-1.21;68.30
34374;BME280;20637;55.770;37.592;2023-12-29T00:33:22;98852.03;;;-1.15;69.01
34374;BME280;20637;55.770;37.592;2023-12-29T00:35:48;98855.78;;;-1.06;68.96
34374;BME280;20637;55.770;37.592;2023-12-29T00:38:13;98848.47;;;-1.03;68.64
34374;BME280;20637;55.770;37.592;2023-12-29T00:40:39;98835.56;;;-1.07;68.66
34374;BME280;20637;55.770;37.592;2023-12-29T00:43:04;98834.00;;;-1.10;68.40
34374;BME280;20637;55.770;37.592;2023-12-29T00:45:31;98844.00;;;-1.02;68.95
34374;BME280;20637;55.770;37.592;2023-12-29T00:48:02;98834.75;;;-0.97;68.94
34374;BME280;20637;55.770;37.592;2023-12-29T00:50:28;98838.16;;;-0.94;68.48
34374;BME280;20637;55.770;37.592;2023-12-29T00:52:53;98827.22;;;-0.90;68.94
34374;BME280;20637;55.770;37.592;2023-12-29T00:55:20;98826.69;;;-0.95;68.23
34374;BME280;20637;55.770;37.592;2023-12-29T00:57:45;98809.34;;;-0.99;68.55
34374;BME280;20637;55.770;37.592;2023-12-29T01:00:12;98813.69;;;-0.98;68.47
34374;BME280;20637;55.770;37.592;2023-12-29T01:02:39;98817.03;;;-1.07;68.46
34374;BME280;20637;55.770;37.592;2023-12-29T01:05:05;98805.25;;;-1.03;68.53
34374;BME280;20637;55.770;37.592;2023-12-29T01:07:31;98810.28;;;-1.00;68.72
34374;BME280;20637;55.770;37.592;2023-12-29T01:09:58;98794.41;;;-1.00;68.47
34374;BME280;20637;55.770;37.592;2023-12-29T01:12:25;98791.66;;;-0.99;68.13
34374;BME280;20637;55.770;37.592;2023-12-29T01:14:50;98790.94;;;-1.01;68.78
34374;BME280;20637;55.770;37.592;2023-12-29T01:17:16;98794.66;;;-0.92;68.29
34374;BME280;20637;55.770;37.592;2023-12-29T01:19:41;98785.88;;;-0.92;68.48
34374;BME280;20637;55.770;37.592;2023-12-29T01:22:07;98788.19;;;-0.88;68.65
34374;BME280;20637;55.770;37.592;2023-12-29T01:24:33;98787.56;;;-0.91;68.53
34374;BME280;20637;55.770;37.592;2023-12-29T01:26:58;98790.13;;;-0.90;68.01
34374;BME280;20637;55.770;37.592;2023-12-29T01:29:24;98782.00;;;-1.00;68.58
34374;BME280;20637;55.770;37.592;2023-12-29T01:31:50;98764.31;;;-0.99;68.57
34374;BME280;20637;55.770;37.592;2023-12-29T01:34:16;98747.97;;;-0.93;68.43
34374;BME280;20637;55.770;37.592;2023-12-29T01:36:42;98746.41;;;-0.84;68.91
34374;BME280;20637;55.770;37.592;2023-12-29T01:39:08;98742.19;;;-0.76;68.81
34374;BME280;20637;55.770;37.592;2023-12-29T01:41:33;98741.00;;;-0.72;68.44
34374;BME280;20637;55.770;37.592;2023-12-29T01:44:16;98727.66;;;-0.70;68.24
34374;BME280;20637;55.770;37.592;2023-12-29T01:46:42;98722.94;;;-0.67;68.23
34374;BME280;20637;55.770;37.592;2023-12-29T01:49:08;98707.91;;;-0.66;67.85
34374;BME280;20637;55.770;37.592;2023-12-29T01:51:34;98714.03;;;-0.66;67.62
34374;BME280;20637;55.770;37.592;2023-12-29T01:53:59;98705.34;;;-0.68;68.18
34374;BME280;20637;55.770;37.592;2023-12-29T01:56:25;98699.44;;;-0.71;67.78
34374;BME280;20637;55.770;37.592;2023-12-29T01:58:52;98702.94;;;-0.71;68.42
34374;BME280;20637;55.770;37.592;2023-12-29T02:01:18;98693.19;;;-0.81;67.79
34374;BME280;20637;55.770;37.592;2023-12-29T02:03:44;98690.41;;;-0.91;67.42
34374;BME280;20637;55.770;37.592;2023-12-29T02:06:12;98671.00;;;-0.91;67.50
34374;BME280;20637;55.770;37.592;2023-12-29T02:08:40;98685.34;;;-0.83;68.08
34374;BME280;20637;55.770;37.592;2023-12-29T02:11:06;98689.44;;;-0.79;67.84
34374;BME280;20637;55.770;37.592;2023-12-29T02:13:32;98673.44;;;-0.77;68.29
34374;BME280;20637;55.770;37.592;2023-12-29T02:16:02;98680.06;;;-0.83;67.79
34374;BME280;20637;55.770;37.592;2023-12-29T02:18:32;98671.00;;;-0.80;67.60
34374;BME280;20637;55.770;37.592;2023-12-29T02:20:58;98662.13;;;-0.79;68.12
34374;BME280;20637;55.770;37.592;2023-12-29T02:23:24;98662.84;;;-0.77;67.71
34374;BME280;20637;55.770;37.592;2023-12-29T02:25:50;98664.16;;;-0.72;67.97
34374;BME280;20637;55.770;37.592;2023-12-29T02:28:23;98672.34;;;-0.64;67.71
34374;BME280;20637;55.770;37.592;2023-12-29T02:31:01;98655.25;;;-0.60;67.58
34374;BME280;20637;55.770;37.592;2023-12-29T02:33:33;98659.31;;;-0.56;67.90
34374;BME280;20637;55.770;37.592;2023-12-29T02:36:02;98651.38;;;-0.56;67.82
34374;BME280;20637;55.770;37.592;2023-12-29T02:38:29;98649.19;;;-0.62;67.67
34374;BME280;20637;55.770;37.592;2023-12-29T02:40:58;98642.09;;;-0.72;67.11
34374;BME280;20637;55.770;37.592;2023-12-29T02:43:23;98636.69;;;-0.71;67.38
34374;BME280;20637;55.770;37.592;2023-12-29T02:45:49;98630.06;;;-0.65;67.51
34374;BME280;20637;55.770;37.592;2023-12-29T02:48:14;98629.22;;;-0.55;67.82
34374;BME280;20637;55.770;37.592;2023-12-29T02:50:40;98623.06;;;-0.55;67.08
34374;BME280;20637;55.770;37.592;2023-12-29T02:53:06;98612.00;;;-0.71;67.12
34374;BME280;20637;55.770;37.592;2023-12-29T02:55:31;98618.41;;;-0.74;67.58
34374;BME280;20637;55.770;37.592;2023-12-29T02:57:57;98611.03;;;-0.70;67.56
34374;BME280;20637;55.770;37.592;2023-12-29T03:00:23;98597.44;;;-0.66;67.74
34374;BME280;20637;55.770;37.592;2023-12-29T03:02:48;98603.56;;;-0.65;67.57
34374;BME280;20637;55.770;37.592;2023-12-29T03:05:14;98594.31;;;-0.71;67.08
34374;BME280;20637;55.770;37.592;2023-12-29T03:07:42;98599.25;;;-0.77;67.20
34374;BME280;20637;55.770;37.592;2023-12-29T03:10:08;98599.50;;;-0.91;67.37
34374;BME280;20637;55.770;37.592;2023-12-29T03:12:34;98599.25;;;-1.00;67.63
34374;BME280;20637;55.770;37.592;2023-12-29T03:15:00;98593.50;;;-1.05;68.02
34374;BME280;20637;55.770;37.592;2023-12-29T03:17:26;98593.59;;;-1.06;68.16
34374;BME280;20637;55.770;37.592;2023-12-29T03:19:52;98591.44;;;-1.01;68.34
34374;BME280;20637;55.770;37.592;2023-12-29T03:22:18;98581.81;;;-0.91;68.28
34374;BME280;20637;55.770;37.592;2023-12-29T03:24:44;98576.84;;;-0.84;68.76
34374;BME280;20637;55.770;37.592;2023-12-29T03:27:10;98578.06;;;-0.88;68.38
34374;BME280;20637;55.770;37.592;2023-12-29T03:29:36;98575.78;;;-0.93;68.58
34374;BME280;20637;55.770;37.592;2023-12-29T03:32:02;98580.25;;;-0.93;68.59
34374;BME280;20637;55.770;37.592;2023-12-29T03:34:28;98571.19;;;-0.91;68.63
34374;BME280;20637;55.770;37.592;2023-12-29T03:36:53;98570.69;;;-0.85;68.34
34374;BME280;20637;55.770;37.592;2023-12-29T03:39:19;98564.94;;;-0.79;69.00
34374;BME280;20637;55.770;37.592;2023-12-29T03:41:45;98554.41;;;-0.69;68.35
34374;BME280;20637;55.770;37.592;2023-12-29T03:44:11;98554.19;;;-0.66;68.27
34374;BME280;20637;55.770;37.592;2023-12-29T03:46:36;98559.59;;;-0.68;68.44
34374;BME280;20637;55.770;37.592;2023-12-29T03:49:02;98550.69;;;-0.67;68.76
34374;BME280;20637;55.770;37.592;2023-12-29T03:51:29;98539.25;;;-0.67;68.39
34374;BME280;20637;55.770;37.592;2023-12-29T03:53:54;98535.88;;;-0.69;68.62
34374;BME280;20637;55.770;37.592;2023-12-29T03:56:20;98537.94;;;-0.73;68.30
34374;BME280;20637;55.770;37.592;2023-12-29T03:58:46;98527.22;;;-0.71;69.01
34374;BME280;20637;55.770;37.592;2023-12-29T04:01:16;98513.34;;;-0.64;68.63
34374;BME280;20637;55.770;37.592;2023-12-29T04:03:42;98515.25;;;-0.55;69.09
34374;BME280;20637;55.770;37.592;2023-12-29T04:06:08;98519.06;;;-0.47;69.26
34374;BME280;20637;55.770;37.592;2023-12-29T04:08:35;98520.13;;;-0.50;68.93
34374;BME280;20637;55.770;37.592;2023-12-29T04:11:01;98523.78;;;-0.51;69.05
34374;BME280;20637;55.770;37.592;2023-12-29T04:13:27;98524.63;;;-0.51;69.37
34374;BME280;20637;55.770;37.592;2023-12-29T04:15:53;98527.41;;;-0.52;69.61
34374;BME280;20637;55.770;37.592;2023-12-29T04:18:23;98514.16;;;-0.52;69.29
34374;BME280;20637;55.770;37.592;2023-12-29T04:20:50;98503.66;;;-0.54;69.93
34374;BME280;20637;55.770;37.592;2023-12-29T04:23:15;98494.91;;;-0.65;69.74
34374;BME280;20637;55.770;37.592;2023-12-29T04:25:41;98493.47;;;-0.69;70.34
34374;BME280;20637;55.770;37.592;2023-12-29T04:28:07;98496.53;;;-0.74;70.39
34374;BME280;20637;55.770;37.592;2023-12-29T04:30:34;98495.31;;;-0.81;70.98
34374;BME280;20637;55.770;37.592;2023-12-29T04:33:00;98482.94;;;-0.91;70.59
34374;BME280;20637;55.770;37.592;2023-12-29T04:35:25;98481.88;;;-1.00;71.31
34374;BME280;20637;55.770;37.592;2023-12-29T04:37:51;98457.81;;;-0.97;71.76
34374;BME280;20637;55.770;37.592;2023-12-29T04:40:18;98458.88;;;-1.00;71.86
34374;BME280;20637;55.770;37.592;2023-12-29T04:42:44;98447.69;;;-1.03;71.99
34374;BME280;20637;55.770;37.592;2023-12-29T04:45:10;98436.75;;;-0.99;72.61
34374;BME280;20637;55.770;37.592;2023-12-29T04:47:37;98430.94;;;-0.92;72.66
34374;BME280;20637;55.770;37.592;2023-12-29T04:50:03;98418.16;;;-0.87;72.37
34374;BME280;20637;55.770;37.592;2023-12-29T04:52:30;98416.34;;;-0.87;72.65
34374;BME280;20637;55.770;37.592;2023-12-29T04:54:55;98430.28;;;-0.85;72.50
34374;BME280;20637;55.770;37.592;2023-12-29T04:57:21;98431.03;;;-0.83;72.85
34374;BME280;20637;55.770;37.592;2023-12-29T04:59:46;98433.31;;;-0.78;72.36
34374;BME280;20637;55.770;37.592;2023-12-29T05:02:12;98432.78;;;-0.72;72.66
34374;BME280;20637;55.770;37.592;2023-12-29T05:04:38;98426.00;;;-0.65;72.47
34374;BME280;20637;55.770;37.592;2023-12-29T05:07:07;98426.34;;;-0.59;72.80
34374;BME280;20637;55.770;37.592;2023-12-29T05:09:33;98425.81;;;-0.53;72.54
34374;BME280;20637;55.770;37.592;2023-12-29T05:11:58;98424.34;;;-0.45;72.77
34374;BME280;20637;55.770;37.592;2023-12-29T05:14:24;98427.47;;;-0.40;73.22
34374;BME280;20637;55.770;37.592;2023-12-29T05:16:49;98422.03;;;-0.39;72.96
34374;BME280;20637;55.770;37.592;2023-12-29T05:19:15;98413.09;;;-0.38;73.09
34374;BME280;20637;55.770;37.592;2023-12-29T05:21:41;98414.09;;;-0.39;72.63
34374;BME280;20637;55.770;37.592;2023-12-29T05:24:07;98407.94;;;-0.39;72.86
34374;BME280;20637;55.770;37.592;2023-12-29T05:26:33;98403.47;;;-0.39;72.91
34374;BME280;20637;55.770;37.592;2023-12-29T05:28:59;98397.19;;;-0.38;72.80
34374;BME280;20637;55.770;37.592;2023-12-29T05:31:25;98387.56;;;-0.39;72.44
34374;BME280;20637;55.770;37.592;2023-12-29T05:33:50;98391.66;;;-0.35;73.18
34374;BME280;20637;55.770;37.592;2023-12-29T05:36:16;98392.91;;;-0.29;73.04
34374;BME280;20637;55.770;37.592;2023-12-29T05:38:44;98392.66;;;-0.26;73.43
34374;BME280;20637;55.770;37.592;2023-12-29T05:41:13;98393.22;;;-0.23;72.54
34374;BME280;20637;55.770;37.592;2023-12-29T05:43:39;98394.81;;;-0.20;73.22
34374;BME280;20637;55.770;37.592;2023-12-29T05:46:11;98402.84;;;-0.31;72.80
34374;BME280;20637;55.770;37.592;2023-12-29T05:48:38;98387.97;;;-0.43;73.00
34374;BME280;20637;55.770;37.592;2023-12-29T05:51:12;98386.22;;;-0.54;73.10
34374;BME280;20637;55.770;37.592;2023-12-29T05:53:42;98387.81;;;-0.63;72.72
34374;BME280;20637;55.770;37.592;2023-12-29T05:56:13;98389.16;;;-0.68;73.01
34374;BME280;20637;55.770;37.592;2023-12-29T05:58:40;98386.53;;;-0.68;73.30
34374;BME280;20637;55.770;37.592;2023-12-29T06:01:07;98386.84;;;-0.62;73.77
34374;BME280;20637;55.770;37.592;2023-12-29T06:03:32;98393.25;;;-0.64;73.59
34374;BME280;20637;55.770;37.592;2023-12-29T06:05:58;98379.41;;;-0.68;73.90
34374;BME280;20637;55.770;37.592;2023-12-29T06:08:24;98380.91;;;-0.75;73.50
34374;BME280;20637;55.770;37.592;2023-12-29T06:10:50;98384.50;;;-0.76;73.57
34374;BME280;20637;55.770;37.592;2023-12-29T06:13:15;98379.78;;;-0.72;74.19
34374;BME280;20637;55.770;37.592;2023-12-29T06:15:41;98384.97;;;-0.71;73.92
34374;BME280;20637;55.770;37.592;2023-12-29T06:18:06;98372.81;;;-0.73;74.15
34374;BME280;20637;55.770;37.592;2023-12-29T06:20:32;98381.75;;;-0.74;74.22
34374;BME280;20637;55.770;37.592;2023-12-29T06:22:59;98374.75;;;-0.75;73.89
34374;BME280;20637;55.770;37.592;2023-12-29T06:25:24;98369.56;;;-0.77;73.64
34374;BME280;20637;55.770;37.592;2023-12-29T06:27:50;98362.09;;;-0.72;74.18
34374;BME280;20637;55.770;37.592;2023-12-29T06:30:16;98356.28;;;-0.66;74.34
34374;BME280;20637;55.770;37.592;2023-12-29T06:32:42;98359.25;;;-0.59;74.23
34374;BME280;20637;55.770;37.592;2023-12-29T06:35:08;98354.59;;;-0.67;73.83
34374;BME280;20637;55.770;37.592;2023-12-29T06:37:38;98359.69;;;-0.75;73.84
34374;BME280;20637;55.770;37.592;2023-12-29T06:40:06;98352.88;;;-0.77;73.43
34374;BME280;20637;55.770;37.592;2023-12-29T06:42:32;98350.22;;;-0.77;74.13
34374;BME280;20637;55.770;37.592;2023-12-29T06:44:57;98338.63;;;-0.76;74.03
34374;BME280;20637;55.770;37.592;2023-12-29T06:47:23;98344.66;;;-0.74;73.41
34374;BME280;20637;55.770;37.592;2023-12-29T06:49:48;98328.88;;;-0.76;73.70
34374;BME280;20637;55.770;37.592;2023-12-29T06:52:15;98340.06;;;-0.72;74.21
34374;BME280;20637;55.770;37.592;2023-12-29T06:54:41;98355.88;;;-0.61;74.46
34374;BME280;20637;55.770;37.592;2023-12-29T06:57:07;98354.28;;;-0.53;74.07
34374;BME280;20637;55.770;37.592;2023-12-29T06:59:32;98352.91;;;-0.47;74.23
34374;BME280;20637;55.770;37.592;2023-12-29T07:01:58;98348.88;;;-0.41;74.25
34374;BME280;20637;55.770;37.592;2023-12-29T07:04:24;98351.16;;;-0.37;73.81
34374;BME280;20637;55.770;37.592;2023-12-29T07:06:49;98348.22;;;-0.34;73.82
34374;BME280;20637;55.770;37.592;2023-12-29T07:09:15;98345.72;;;-0.35;73.97
34374;BME280;20637;55.770;37.592;2023-12-29T07:11:40;98337.44;;;-0.42;73.50
34374;BME280;20637;55.770;37.592;2023-12-29T07:14:06;98337.31;;;-0.40;73.25
34374;BME280;20637;55.770;37.592;2023-12-29T07:16:32;98330.50;;;-0.43;73.88
34374;BME280;20637;55.770;37.592;2023-12-29T07:18:57;98325.69;;;-0.49;73.16
34374;BME280;20637;55.770;37.592;2023-12-29T07:21:23;98325.19;;;-0.43;73.53
34374;BME280;20637;55.770;37.592;2023-12-29T07:23:48;98336.94;;;-0.36;73.64
34374;BME280;20637;55.770;37.592;2023-12-29T07:26:14;98339.44;;;-0.34;73.46
34374;BME280;20637;55.770;37.592;2023-12-29T07:28:40;98344.31;;;-0.39;73.67
34374;BME280;20637;55.770;37.592;2023-12-29T07:31:06;98333.00;;;-0.41;73.78
34374;BME280;20637;55.770;37.592;2023-12-29T07:33:31;98341.91;;;-0.42;74.19
34374;BME280;20637;55.770;37.592;2023-12-29T07:35:57;98333.25;;;-0.44;73.99
34374;BME280;20637;55.770;37.592;2023-12-29T07:38:24;98321.88;;;-0.35;73.79
34374;BME280;20637;55.770;37.592;2023-12-29T07:40:49;98330.81;;;-0.27;73.93
34374;BME280;20637;55.770;37.592;2023-12-29T07:43:15;98322.09;;;-0.18;74.10
34374;BME280;20637;55.770;37.592;2023-12-29T07:45:41;98320.97;;;-0.15;73.61
34374;BME280;20637;55.770;37.592;2023-12-29T07:48:09;98318.50;;;-0.07;73.86
34374;BME280;20637;55.770;37.592;2023-12-29T07:50:34;98326.22;;;-0.04;73.60
34374;BME280;20637;55.770;37.592;2023-12-29T07:53:00;98321.41;;;-0.20;73.57
34374;BME280;20637;55.770;37.592;2023-12-29T07:55:31;98316.91;;;-0.19;73.63
34374;BME280;20637;55.770;37.592;2023-12-29T07:57:57;98308.81;;;-0.18;73.74
34374;BME280;20637;55.770;37.592;2023-12-29T08:00:23;98314.31;;;-0.10;73.69
34374;BME280;20637;55.770;37.592;2023-12-29T08:02:49;98314.75;;;-0.05;73.93
34374;BME280;20637;55.770;37.592;2023-12-29T08:05:15;98317.00;;;0.00;73.99
34374;BME280;20637;55.770;37.592;2023-12-29T08:07:42;98312.28;;;0.04;73.57
34374;BME280;20637;55.770;37.592;2023-12-29T08:10:09;98313.25;;;0.03;73.43
34374;BME280;20637;55.770;37.592;2023-12-29T08:12:35;98300.50;;;-0.04;73.59
34374;BME280;20637;55.770;37.592;2023-12-29T08:15:04;98304.38;;;-0.08;73.81
34374;BME280;20637;55.770;37.592;2023-12-29T08:17:32;98300.25;;;-0.01;73.41
34374;BME280;20637;55.770;37.592;2023-12-29T08:19:58;98294.66;;;0.03;73.64
34374;BME280;20637;55.770;37.592;2023-12-29T08:22:23;98292.72;;;0.05;73.89
34374;BME280;20637;55.770;37.592;2023-12-29T08:24:49;98290.09;;;0.14;74.02
34374;BME280;20637;55.770;37.592;2023-12-29T08:27:22;98292.19;;;0.20;73.62
34374;BME280;20637;55.770;37.592;2023-12-29T08:29:49;98295.25;;;0.16;73.73
34374;BME280;20637;55.770;37.592;2023-12-29T08:32:15;98286.59;;;0.14;73.52
34374;BME280;20637;55.770;37.592;2023-12-29T08:34:41;98286.19;;;0.18;74.10
34374;BME280;20637;55.770;37.592;2023-12-29T08:37:07;98281.31;;;0.23;73.84
34374;BME280;20637;55.770;37.592;2023-12-29T08:39:32;98273.66;;;0.30;74.16
34374;BME280;20637;55.770;37.592;2023-12-29T08:41:58;98280.38;;;0.34;74.32
34374;BME280;20637;55.770;37.592;2023-12-29T08:44:25;98265.41;;;0.33;73.93
34374;BME280;20637;55.770;37.592;2023-12-29T08:46:50;98275.47;;;0.29;74.40
34374;BME280;20637;55.770;37.592;2023-12-29T08:49:16;98265.13;;;0.26;74.27
34374;BME280;20637;55.770;37.592;2023-12-29T08:51:42;98273.63;;;0.20;74.15
34374;BME280;20637;55.770;37.592;2023-12-29T08:54:07;98258.00;;;0.27;74.30
34374;BME280;20637;55.770;37.592;2023-12-29T08:56:33;98257.72;;;0.39;75.05
34374;BME280;20637;55.770;37.592;2023-12-29T08:58:58;98252.00;;;0.44;74.55
34374;BME280;20637;55.770;37.592;2023-12-29T09:01:24;98255.06;;;0.39;74.95
34374;BME280;20637;55.770;37.592;2023-12-29T09:03:50;98247.69;;;0.33;74.42
34374;BME280;20637;55.770;37.592;2023-12-29T09:06:15;98253.94;;;0.32;74.77
34374;BME280;20637;55.770;37.592;2023-12-29T09:08:41;98244.59;;;0.28;74.65
34374;BME280;20637;55.770;37.592;2023-12-29T09:11:07;98242.22;;;0.35;74.77
34374;BME280;20637;55.770;37.592;2023-12-29T09:13:32;98253.84;;;0.34;74.87
34374;BME280;20637;55.770;37.592;2023-12-29T09:15:58;98245.72;;;0.35;74.82
34374;BME280;20637;55.770;37.592;2023-12-29T09:18:24;98256.88;;;0.39;74.89
34374;BME280;20637;55.770;37.592;2023-12-29T09:20:50;98251.56;;;0.39;74.99
34374;BME280;20637;55.770;37.592;2023-12-29T09:23:16;98232.44;;;0.35;74.90
34374;BME280;20637;55.770;37.592;2023-12-29T09:25:42;98242.53;;;0.41;75.45
34374;BME280;20637;55.770;37.592;2023-12-29T09:28:07;98231.34;;;0.47;75.67
34374;BME280;20637;55.770;37.592;2023-12-29T09:30:33;98228.56;;;0.49;75.44
34374;BME280;20637;55.770;37.592;2023-12-29T09:32:59;98230.94;;;0.42;75.51
34374;BME280;20637;55.770;37.592;2023-12-29T09:35:24;98218.31;;;0.35;75.27
34374;BME280;20637;55.770;37.592;2023-12-29T09:37:50;98205.78;;;0.37;75.43
34374;BME280;20637;55.770;37.592;2023-12-29T09:40:16;98201.16;;;0.48;75.67
34374;BME280;20637;55.770;37.592;2023-12-29T09:42:45;98206.19;;;0.52;76.00
34374;BME280;20637;55.770;37.592;2023-12-29T09:45:12;98205.91;;;0.55;75.91
34374;BME280;20637;55.770;37.592;2023-12-29T09:47:40;98215.13;;;0.60;75.43
34374;BME280;20637;55.770;37.592;2023-12-29T09:50:11;98215.56;;;0.65;75.65
34374;BME280;20637;55.770;37.592;2023-12-29T09:52:40;98215.00;;;0.71;75.41
34374;BME280;20637;55.770;37.592;2023-12-29T09:55:10;98210.94;;;0.77;75.51
34374;BME280;20637;55.770;37.592;2023-12-29T09:57:37;98211.34;;;0.82;76.04
34374;BME280;20637;55.770;37.592;2023-12-29T10:00:05;98208.41;;;0.85;75.82
34374;BME280;20637;55.770;37.592;2023-12-29T10:02:37;98199.31;;;0.87;75.54
34374;BME280;20637;55.770;37.592;2023-12-29T10:05:04;98201.81;;;0.89;75.28
34374;BME280;20637;55.770;37.592;2023-12-29T10:07:35;98197.22;;;0.91;75.71
34374;BME280;20637;55.770;37.592;2023-12-29T10:10:01;98194.97;;;0.96;75.33
34374;BME280;20637;55.770;37.592;2023-12-29T10:12:29;98181.53;;;0.98;75.76
34374;BME280;20637;55.770;37.592;2023-12-29T10:18:14;98175.63;;;1.13;75.79
34374;BME280;20637;55.770;37.592;2023-12-29T10:23:36;98195.13;;;1.31;75.99
34374;BME280;20637;55.770;37.592;2023-12-29T10:26:04;98189.56;;;1.25;75.25
34374;BME280;20637;55.770;37.592;2023-12-29T10:28:31;98185.94;;;1.16;75.78
34374;BME280;20637;55.770;37.592;2023-12-29T10:30:57;98187.09;;;1.14;75.52
34374;BME280;20637;55.770;37.592;2023-12-29T10:33:23;98194.09;;;1.15;75.80
34374;BME280;20637;55.770;37.592;2023-12-29T10:36:02;98190.72;;;1.13;75.60
34374;BME280;20637;55.770;37.592;2023-12-29T10:38:29;98182.63;;;1.14;76.00
34374;BME280;20637;55.770;37.592;2023-12-29T10:41:10;98180.38;;;1.19;76.09
34374;BME280;20637;55.770;37.592;2023-12-29T10:43:36;98184.41;;;1.23;76.07
34374;BME280;20637;55.770;37.592;2023-12-29T10:46:09;98181.47;;;1.17;76.11
34374;BME280;20637;55.770;37.592;2023-12-29T10:48:35;98177.59;;;1.11;75.87
34374;BME280;20637;55.770;37.592;2023-12-29T10:51:04;98170.59;;;1.10;76.20
34374;BME280;20637;55.770;37.592;2023-12-29T10:53:34;98170.59;;;1.10;76.49
34374;BME280;20637;55.770;37.592;2023-12-29T10:56:00;98172.13;;;1.13;76.43
34374;BME280;20637;55.770;37.592;2023-12-29T10:58:27;98173.50;;;1.17;76.77
34374;BME280;20637;55.770;37.592;2023-12-29T11:00:55;98174.34;;;1.17;76.70
34374;BME280;20637;55.770;37.592;2023-12-29T11:03:22;98177.72;;;1.19;76.96
34374;BME280;20637;55.770;37.592;2023-12-29T11:05:48;98178.09;;;1.24;77.31
34374;BME280;20637;55.770;37.592;2023-12-29T11:08:18;98181.47;;;1.26;77.18
34374;BME280;20637;55.770;37.592;2023-12-29T11:10:45;98185.50;;;1.30;77.44
34374;BME280;20637;55.770;37.592;2023-12-29T11:13:11;98167.03;;;1.29;77.28
34374;BME280;20637;55.770;37.592;2023-12-29T11:15:45;98177.53;;;1.30;77.60
34374;BME280;20637;55.770;37.592;2023-12-29T11:18:14;98173.88;;;1.31;77.87
34374;BME280;20637;55.770;37.592;2023-12-29T11:20:41;98174.56;;;1.33;78.03
34374;BME280;20637;55.770;37.592;2023-12-29T11:23:08;98172.22;;;1.30;78.22
34374;BME280;20637;55.770;37.592;2023-12-29T11:25:34;98174.56;;;1.33;77.98
34374;BME280;20637;55.770;37.592;2023-12-29T11:28:00;98177.25;;;1.33;78.23
34374;BME280;20637;55.770;37.592;2023-12-29T11:30:27;98171.22;;;1.31;78.44
34374;BME280;20637;55.770;37.592;2023-12-29T11:33:08;98172.22;;;1.30;78.67
34374;BME280;20637;55.770;37.592;2023-12-29T11:41:31;98185.81;;;1.27;79.29
34374;BME280;20637;55.770;37.592;2023-12-29T11:44:00;98178.50;;;1.29;79.31
34374;BME280;20637;55.770;37.592;2023-12-29T11:46:39;98180.19;;;1.30;79.76
34374;BME280;20637;55.770;37.592;2023-12-29T11:49:09;98179.91;;;1.33;79.70
34374;BME280;20637;55.770;37.592;2023-12-29T11:51:42;98175.13;;;1.37;79.96
34374;BME280;20637;55.770;37.592;2023-12-29T11:54:23;98172.03;;;1.41;80.09
34374;BME280;20637;55.770;37.592;2023-12-29T11:56:50;98170.75;;;1.46;80.39
34374;BME280;20637;55.770;37.592;2023-12-29T12:01:57;98175.47;;;1.52;80.49
34374;BME280;20637;55.770;37.592;2023-12-29T12:04:42;98172.50;;;1.55;80.71
34374;BME280;20637;55.770;37.592;2023-12-29T12:07:15;98181.59;;;1.62;80.75
34374;BME280;20637;55.770;37.592;2023-12-29T12:09:41;98181.44;;;1.63;80.94
34374;BME280;20637;55.770;37.592;2023-12-29T12:12:07;98180.16;;;1.67;80.99
34374;BME280;20637;55.770;37.592;2023-12-29T12:14:46;98182.69;;;1.69;80.99
34374;BME280;20637;55.770;37.592;2023-12-29T12:17:33;98191.63;;;1.68;81.24
34374;BME280;20637;55.770;37.592;2023-12-29T12:20:06;98190.50;;;1.70;81.34
34374;BME280;20637;55.770;37.592;2023-12-29T12:22:35;98194.84;;;1.71;81.59
34374;BME280;20637;55.770;37.592;2023-12-29T12:25:02;98186.72;;;1.73;81.46
34374;BME280;20637;55.770;37.592;2023-12-29T12:27:30;98189.09;;;1.76;81.52
34374;BME280;20637;55.770;37.592;2023-12-29T12:29:58;98188.94;;;1.77;81.81
34374;BME280;20637;55.770;37.592;2023-12-29T12:32:26;98194.25;;;1.77;81.79
34374;BME280;20637;55.770;37.592;2023-12-29T12:34:52;98193.13;;;1.80;81.98
34374;BME280;20637;55.770;37.592;2023-12-29T12:37:21;98193.13;;;1.80;81.89
34374;BME280;20637;55.770;37.592;2023-12-29T12:39:47;98192.16;;;1.81;81.92
34374;BME280;20637;55.770;37.592;2023-12-29T12:42:15;98199.13;;;1.82;82.17
34374;BME280;20637;55.770;37.592;2023-12-29T12:44:45;98191.53;;;1.87;82.38
34374;BME280;20637;55.770;37.592;2023-12-29T12:47:15;98198.94;;;1.93;82.49
34374;BME280;20637;55.770;37.592;2023-12-29T12:49:42;98209.13;;;1.98;82.48
34374;BME280;20637;55.770;37.592;2023-12-29T12:52:08;98206.00;;;2.02;82.77
34374;BME280;20637;55.770;37.592;2023-12-29T12:54:34;98209.06;;;2.07;82.71
34374;BME280;20637;55.770;37.592;2023-12-29T12:57:00;98212.56;;;2.08;82.69
34374;BME280;20637;55.770;37.592;2023-12-29T12:59:27;98217.91;;;2.08;82.81
34374;BME280;20637;55.770;37.592;2023-12-29T13:01:53;98223.59;;;2.13;82.91
34374;BME280;20637;55.770;37.592;2023-12-29T13:04:19;98225.50;;;2.20;82.76
34374;BME280;20637;55.770;37.592;2023-12-29T13:06:44;98221.56;;;2.24;83.09